Time,TemperatureF,DewpointF,PressureIn,WindDirection,WindDirectionDegrees,WindSpeedMPH,WindSpeedGustMPH,Humidity,HourlyPrecipIn,Conditions,Clouds,dailyrainin,SoftwareType,DateUTC
2013-02-05 00:02:00,26.0,22.0,29.82,SSE,167,1.0,4.0,86,0.00,,,0.00,,2013-02-05 06:02:00,
2013-02-05 00:11:00,26.0,22.0,29.82,SSE,167,1.0,4.0,86,0.00,,,0.00,,2013-02-05 06:11:00,
2013-02-05 00:21:00,26.0,22.0,29.82,SSE,168,1.0,3.0,86,0.00,,,0.00,,2013-02-05 06:21:00,
2013-02-05 00:32:00,26.0,22.0,29.82,SSE,168,1.0,3.0,86,0.00,,,0.00,,2013-02-05 06:32:00,
2013-02-05 00:42:00,26.0,22.0,29.82,SSE,168,1.0,3.0,86,0.00,,,0.00,,2013-02-05 06:42:00,
2013-02-05 00:51:00,27.0,23.0,29.83,South,181,1.0,4.0,86,0.00,,,0.00,,2013-02-05 06:51:00,
2013-02-05 01:01:00,27.0,23.0,29.82,South,191,1.0,5.0,86,0.00,,,0.00,,2013-02-05 07:01:00,
2013-02-05 01:11:00,27.0,23.0,29.82,South,191,1.0,5.0,86,0.00,,,0.00,,2013-02-05 07:11:00,
2013-02-05 01:22:00,27.0,23.0,29.82,South,180,0.0,5.0,86,0.00,,,0.00,,2013-02-05 07:22:00,
2013-02-05 01:32:00,27.0,23.0,29.82,South,180,0.0,5.0,86,0.00,,,0.00,,2013-02-05 07:32:00,
2013-02-05 01:41:00,27.0,23.0,29.82,South,180,0.0,5.0,86,0.00,,,0.00,,2013-02-05 07:41:00,
2013-02-05 01:52:00,27.0,23.0,29.82,South,182,0.0,3.0,86,0.00,,,0.00,,2013-02-05 07:52:00,
2013-02-05 02:01:00,27.0,23.0,29.81,South,182,0.0,4.0,86,0.00,,,0.00,,2013-02-05 08:01:00,
2013-02-05 02:11:00,27.0,23.0,29.81,South,182,0.0,4.0,86,0.00,,,0.00,,2013-02-05 08:11:00,
2013-02-05 02:21:00,27.0,24.0,29.80,South,182,0.0,3.0,87,0.00,,,0.00,,2013-02-05 08:21:00,
2013-02-05 02:31:00,27.0,24.0,29.80,South,182,0.0,3.0,87,0.00,,,0.00,,2013-02-05 08:31:00,
2013-02-05 02:41:00,27.0,24.0,29.80,South,182,0.0,3.0,87,0.00,,,0.00,,2013-02-05 08:41:00,
2013-02-05 02:52:00,27.0,24.0,29.80,South,182,0.0,3.0,87,0.00,,,0.00,,2013-02-05 08:52:00,
2013-02-05 03:02:00,27.0,24.0,29.80,South,182,0.0,3.0,87,0.00,,,0.00,,2013-02-05 09:02:00,
2013-02-05 03:11:00,27.0,24.0,29.80,South,182,0.0,3.0,87,0.00,,,0.00,,2013-02-05 09:11:00,
2013-02-05 03:21:00,27.0,24.0,29.80,South,182,0.0,3.0,87,0.00,,,0.00,,2013-02-05 09:21:00,
2013-02-05 03:32:00,27.0,24.0,29.80,South,182,0.0,3.0,87,0.00,,,0.00,,2013-02-05 09:32:00,
2013-02-05 03:52:00,26.0,23.0,29.79,South,182,0.0,2.0,88,0.00,,,0.00,,2013-02-05 09:52:00,
2013-02-05 04:02:00,26.0,23.0,29.79,South,182,0.0,0.0,88,0.00,,,0.00,,2013-02-05 10:02:00,
2013-02-05 04:11:00,26.0,23.0,29.79,South,182,0.0,0.0,88,0.00,,,0.00,,2013-02-05 10:11:00,
2013-02-05 04:21:00,26.0,23.0,29.78,South,182,0.0,5.0,88,0.00,,,0.00,,2013-02-05 10:21:00,
2013-02-05 04:32:00,26.0,23.0,29.78,SSE,164,2.0,5.0,88,0.00,,,0.00,,2013-02-05 10:32:00,
2013-02-05 04:42:00,26.0,23.0,29.78,SSE,164,2.0,5.0,88,0.00,,,0.00,,2013-02-05 10:42:00,
2013-02-05 04:52:00,26.0,23.0,29.77,SSE,165,2.0,5.0,89,0.00,,,0.00,,2013-02-05 10:52:00,
2013-02-05 05:01:00,26.0,23.0,29.77,SSE,165,0.0,5.0,89,0.00,,,0.00,,2013-02-05 11:01:00,
2013-02-05 05:11:00,26.0,23.0,29.77,SSE,165,0.0,5.0,89,0.00,,,0.00,,2013-02-05 11:11:00,
2013-02-05 05:22:00,27.0,24.0,29.77,SSE,165,0.0,2.0,89,0.00,,,0.00,,2013-02-05 11:22:00,
2013-02-05 05:32:00,27.0,24.0,29.78,SSE,165,0.0,1.0,89,0.00,,,0.00,,2013-02-05 11:32:00,
2013-02-05 05:42:00,27.0,24.0,29.78,SSE,165,0.0,1.0,89,0.00,,,0.00,,2013-02-05 11:42:00,
2013-02-05 05:52:00,27.0,24.0,29.78,SSE,165,0.0,0.0,89,0.00,,,0.00,,2013-02-05 11:52:00,
2013-02-05 06:01:00,27.0,24.0,29.78,SSE,165,0.0,0.0,88,0.00,,,0.00,,2013-02-05 12:01:00,
2013-02-05 06:12:00,27.0,24.0,29.78,SSE,165,0.0,0.0,88,0.00,,,0.00,,2013-02-05 12:12:00,
2013-02-05 06:21:00,28.0,25.0,29.78,SSE,165,0.0,0.0,88,0.00,,,0.00,,2013-02-05 12:21:00,
2013-02-05 06:32:00,28.0,25.0,29.78,SSE,165,0.0,1.0,88,0.00,,,0.00,,2013-02-05 12:32:00,
2013-02-05 06:42:00,28.0,25.0,29.78,SSE,165,0.0,1.0,88,0.00,,,0.00,,2013-02-05 12:42:00,
2013-02-05 06:52:00,28.0,25.0,29.79,SSE,165,0.0,0.0,88,0.00,,,0.00,,2013-02-05 12:52:00,
2013-02-05 07:01:00,28.0,25.0,29.79,SSE,165,0.0,0.0,88,0.00,,,0.00,,2013-02-05 13:01:00,
2013-02-05 07:12:00,28.0,25.0,29.79,SSE,165,0.0,0.0,88,0.00,,,0.00,,2013-02-05 13:12:00,
2013-02-05 07:22:00,29.0,26.0,29.79,South,186,0.0,0.0,88,0.00,,,0.00,,2013-02-05 13:22:00,
2013-02-05 07:32:00,29.0,26.0,29.79,South,186,0.0,0.0,88,0.00,,,0.00,,2013-02-05 13:32:00,
2013-02-05 07:42:00,29.0,26.0,29.79,South,186,0.0,0.0,88,0.00,,,0.00,,2013-02-05 13:42:00,
2013-02-05 07:52:00,29.0,26.0,29.79,South,186,0.0,0.0,88,0.00,,,0.00,,2013-02-05 13:52:00,
2013-02-05 08:01:00,29.0,25.0,29.80,South,187,0.0,0.0,86,0.00,,,0.00,,2013-02-05 14:01:00,
2013-02-05 08:12:00,29.0,25.0,29.80,South,187,0.0,0.0,86,0.00,,,0.00,,2013-02-05 14:12:00,
2013-02-05 08:21:00,29.0,25.0,29.80,South,187,0.0,0.0,86,0.00,,,0.00,,2013-02-05 14:21:00,
2013-02-05 08:32:00,29.0,25.0,29.80,South,187,0.0,0.0,86,0.00,,,0.00,,2013-02-05 14:32:00,
2013-02-05 08:42:00,29.0,25.0,29.80,South,187,0.0,0.0,86,0.00,,,0.00,,2013-02-05 14:42:00,
2013-02-05 08:52:00,31.0,27.0,29.82,South,189,0.0,2.0,86,0.00,,,0.00,,2013-02-05 14:52:00,
2013-02-05 09:02:00,32.0,28.0,29.82,South,189,0.0,3.0,84,0.00,,,0.00,,2013-02-05 15:02:00,
2013-02-05 09:11:00,32.0,28.0,29.82,South,189,0.0,3.0,84,0.00,,,0.00,,2013-02-05 15:11:00,
2013-02-05 09:21:00,34.0,28.0,29.83,SSW,194,0.0,2.0,80,0.00,,,0.00,,2013-02-05 15:21:00,
2013-02-05 09:32:00,34.0,28.0,29.83,SSW,194,0.0,2.0,80,0.00,,,0.00,,2013-02-05 15:32:00,
2013-02-05 09:41:00,34.0,28.0,29.83,SSW,194,0.0,2.0,80,0.00,,,0.00,,2013-02-05 15:41:00,
2013-02-05 09:52:00,36.0,29.0,29.84,WSW,257,0.0,2.0,74,0.00,,,0.00,,2013-02-05 15:52:00,
2013-02-05 10:01:00,38.0,30.0,29.84,WNW,291,0.0,4.0,72,0.00,,,0.00,,2013-02-05 16:01:00,
2013-02-05 10:11:00,38.0,30.0,29.84,WNW,291,0.0,4.0,72,0.00,,,0.00,,2013-02-05 16:11:00,
2013-02-05 10:22:00,40.0,30.0,29.85,NW,317,0.0,4.0,67,0.00,,,0.00,,2013-02-05 16:22:00,
2013-02-05 10:32:00,42.0,30.0,29.86,NNW,328,1.0,13.0,62,0.00,,,0.00,,2013-02-05 16:32:00,
2013-02-05 10:42:00,42.0,30.0,29.86,NNW,328,1.0,13.0,62,0.00,,,0.00,,2013-02-05 16:42:00,
2013-02-05 10:52:00,44.0,30.0,29.86,NW,320,4.0,13.0,57,0.00,,,0.00,,2013-02-05 16:52:00,
2013-02-05 11:01:00,45.0,30.0,29.87,NW,321,3.0,10.0,56,0.00,,,0.00,,2013-02-05 17:01:00,
2013-02-05 11:11:00,45.0,30.0,29.87,NW,321,3.0,10.0,56,0.00,,,0.00,,2013-02-05 17:11:00,
2013-02-05 11:21:00,45.0,30.0,29.87,NW,318,3.0,12.0,56,0.00,,,0.00,,2013-02-05 17:21:00,
2013-02-05 11:32:00,45.0,30.0,29.88,West,277,4.0,14.0,55,0.00,,,0.00,,2013-02-05 17:32:00,
2013-02-05 11:42:00,45.0,30.0,29.88,West,277,4.0,14.0,55,0.00,,,0.00,,2013-02-05 17:42:00,
2013-02-05 11:52:00,46.0,31.0,29.88,WNW,284,2.0,14.0,55,0.00,,,0.00,,2013-02-05 17:52:00,
2013-02-05 12:02:00,47.0,31.0,29.88,NW,320,3.0,11.0,53,0.00,,,0.00,,2013-02-05 18:02:00,
2013-02-05 12:11:00,47.0,31.0,29.88,NW,320,3.0,11.0,53,0.00,,,0.00,,2013-02-05 18:11:00,
2013-02-05 12:22:00,47.0,31.0,29.88,NW,314,1.0,9.0,54,0.00,,,0.00,,2013-02-05 18:22:00,
2013-02-05 12:32:00,47.0,31.0,29.88,NW,314,1.0,9.0,54,0.00,,,0.00,,2013-02-05 18:32:00,
2013-02-05 12:42:00,47.0,31.0,29.88,NW,314,1.0,9.0,54,0.00,,,0.00,,2013-02-05 18:42:00,
2013-02-05 12:52:00,48.0,30.0,29.89,NW,309,3.0,16.0,49,0.00,,,0.00,,2013-02-05 18:52:00,
2013-02-05 13:02:00,48.0,30.0,29.89,NW,309,3.0,16.0,49,0.00,,,0.00,,2013-02-05 19:02:00,
2013-02-05 13:11:00,48.0,30.0,29.89,NW,309,3.0,16.0,49,0.00,,,0.00,,2013-02-05 19:11:00,
2013-02-05 13:21:00,49.0,30.0,29.89,NW,311,3.0,14.0,47,0.00,,,0.00,,2013-02-05 19:21:00,
2013-02-05 13:32:00,49.0,30.0,29.89,NW,311,3.0,14.0,47,0.00,,,0.00,,2013-02-05 19:32:00,
2013-02-05 13:42:00,49.0,30.0,29.89,NW,311,3.0,14.0,47,0.00,,,0.00,,2013-02-05 19:42:00,
2013-02-05 13:52:00,49.0,27.0,29.89,WSW,244,3.0,11.0,42,0.00,,,0.00,,2013-02-05 19:52:00,
2013-02-05 14:01:00,49.0,27.0,29.89,NW,313,3.0,13.0,42,0.00,,,0.00,,2013-02-05 20:01:00,
2013-02-05 14:11:00,49.0,27.0,29.89,NW,313,3.0,13.0,42,0.00,,,0.00,,2013-02-05 20:11:00,
2013-02-05 14:21:00,49.0,27.0,29.89,NW,326,3.0,13.0,42,0.00,,,0.00,,2013-02-05 20:21:00,
2013-02-05 14:32:00,50.0,28.0,29.89,NW,319,3.0,11.0,43,0.00,,,0.00,,2013-02-05 20:32:00,
2013-02-05 14:42:00,50.0,28.0,29.89,NW,319,3.0,11.0,43,0.00,,,0.00,,2013-02-05 20:42:00,
2013-02-05 14:52:00,50.0,26.0,29.89,WNW,297,3.0,11.0,39,0.00,,,0.00,,2013-02-05 20:52:00,
2013-02-05 15:02:00,50.0,25.0,29.89,WNW,294,2.0,9.0,37,0.00,,,0.00,,2013-02-05 21:02:00,
2013-02-05 15:11:00,50.0,25.0,29.89,WNW,294,2.0,9.0,37,0.00,,,0.00,,2013-02-05 21:11:00,
2013-02-05 15:22:00,50.0,25.0,29.89,NW,313,3.0,13.0,37,0.00,,,0.00,,2013-02-05 21:22:00,
2013-02-05 15:32:00,50.0,24.0,29.90,West,270,2.0,10.0,36,0.00,,,0.00,,2013-02-05 21:32:00,
2013-02-05 15:42:00,50.0,24.0,29.90,West,270,2.0,10.0,36,0.00,,,0.00,,2013-02-05 21:42:00,
2013-02-05 15:52:00,50.0,24.0,29.90,West,270,2.0,10.0,36,0.00,,,0.00,,2013-02-05 21:52:00,
2013-02-05 16:01:00,50.0,25.0,29.91,NNW,327,4.0,13.0,38,0.00,,,0.00,,2013-02-05 22:01:00,
2013-02-05 16:11:00,50.0,25.0,29.91,NNW,327,4.0,13.0,38,0.00,,,0.00,,2013-02-05 22:11:00,
2013-02-05 16:21:00,49.0,23.0,29.91,NW,314,3.0,13.0,36,0.00,,,0.00,,2013-02-05 22:21:00,
2013-02-05 16:32:00,49.0,23.0,29.91,NW,314,3.0,13.0,36,0.00,,,0.00,,2013-02-05 22:32:00,
2013-02-05 16:42:00,49.0,23.0,29.91,NW,314,3.0,13.0,36,0.00,,,0.00,,2013-02-05 22:42:00,
2013-02-05 16:51:00,48.0,24.0,29.91,NNW,327,1.0,6.0,38,0.00,,,0.00,,2013-02-05 22:51:00,
2013-02-05 17:02:00,48.0,24.0,29.91,NW,324,0.0,3.0,39,0.00,,,0.00,,2013-02-05 23:02:00,
2013-02-05 17:11:00,48.0,24.0,29.91,NW,324,0.0,3.0,39,0.00,,,0.00,,2013-02-05 23:11:00,
2013-02-05 17:22:00,46.0,25.0,29.92,NW,326,0.0,0.0,43,0.00,,,0.00,,2013-02-05 23:22:00,
2013-02-05 17:32:00,46.0,25.0,29.92,NW,326,0.0,3.0,44,0.00,,,0.00,,2013-02-05 23:32:00,
2013-02-05 17:42:00,46.0,25.0,29.92,NW,326,0.0,3.0,44,0.00,,,0.00,,2013-02-05 23:42:00,
2013-02-05 17:52:00,45.0,24.0,29.93,NNW,329,0.0,2.0,44,0.00,,,0.00,,2013-02-05 23:52:00,
2013-02-05 18:02:00,45.0,24.0,29.93,NNW,329,0.0,2.0,44,0.00,,,0.00,,2013-02-06 00:02:00,
2013-02-05 18:11:00,45.0,24.0,29.93,NNW,329,0.0,2.0,44,0.00,,,0.00,,2013-02-06 00:11:00,
2013-02-05 18:22:00,43.0,26.0,29.93,NNW,328,0.0,0.0,50,0.00,,,0.00,,2013-02-06 00:22:00,
2013-02-05 18:32:00,43.0,26.0,29.93,NNW,328,0.0,0.0,50,0.00,,,0.00,,2013-02-06 00:32:00,
2013-02-05 18:42:00,43.0,26.0,29.93,NNW,328,0.0,0.0,50,0.00,,,0.00,,2013-02-06 00:42:00,
2013-02-05 18:52:00,41.0,25.0,29.94,NNW,329,0.0,0.0,53,0.00,,,0.00,,2013-02-06 00:52:00,
2013-02-05 19:02:00,41.0,25.0,29.95,NNW,328,0.0,1.0,53,0.00,,,0.00,,2013-02-06 01:02:00,
2013-02-05 19:11:00,41.0,25.0,29.95,NNW,328,0.0,1.0,53,0.00,,,0.00,,2013-02-06 01:11:00,
2013-02-05 19:22:00,41.0,25.0,29.95,NNW,328,0.0,0.0,53,0.00,,,0.00,,2013-02-06 01:22:00,
2013-02-05 19:32:00,41.0,25.0,29.95,NNW,328,0.0,0.0,53,0.00,,,0.00,,2013-02-06 01:32:00,
2013-02-05 19:42:00,41.0,25.0,29.95,NNW,328,0.0,0.0,53,0.00,,,0.00,,2013-02-06 01:42:00,
2013-02-05 19:52:00,40.0,26.0,29.96,NNW,328,0.0,0.0,56,0.00,,,0.00,,2013-02-06 01:52:00,
2013-02-05 20:01:00,39.0,25.0,29.96,NNW,328,0.0,0.0,58,0.00,,,0.00,,2013-02-06 02:01:00,
2013-02-05 20:11:00,39.0,25.0,29.96,NNW,328,0.0,0.0,58,0.00,,,0.00,,2013-02-06 02:11:00,
2013-02-05 20:22:00,39.0,25.0,29.96,NNW,328,0.0,0.0,58,0.00,,,0.00,,2013-02-06 02:22:00,
2013-02-05 20:32:00,37.0,25.0,29.98,NNW,328,0.0,0.0,62,0.00,,,0.00,,2013-02-06 02:32:00,
2013-02-05 20:42:00,37.0,25.0,29.98,NNW,328,0.0,0.0,62,0.00,,,0.00,,2013-02-06 02:42:00,
2013-02-05 20:52:00,38.0,26.0,29.97,NNW,328,0.0,0.0,62,0.00,,,0.00,,2013-02-06 02:52:00,
2013-02-05 21:02:00,37.0,26.0,29.98,NNW,328,0.0,0.0,63,0.00,,,0.00,,2013-02-06 03:02:00,
2013-02-05 21:12:00,37.0,26.0,29.98,NNW,328,0.0,0.0,63,0.00,,,0.00,,2013-02-06 03:12:00,
2013-02-05 21:22:00,36.0,26.0,29.98,NNW,328,0.0,0.0,66,0.00,,,0.00,,2013-02-06 03:22:00,
2013-02-05 21:32:00,36.0,26.0,29.97,NNW,328,0.0,0.0,67,0.00,,,0.00,,2013-02-06 03:32:00,
2013-02-05 21:42:00,36.0,26.0,29.97,NNW,328,0.0,0.0,67,0.00,,,0.00,,2013-02-06 03:42:00,
2013-02-05 21:53:00,34.0,26.0,29.97,NNW,328,0.0,0.0,72,0.00,,,0.00,,2013-02-06 03:53:00,
2013-02-05 22:02:00,33.0,25.0,29.98,NNW,328,0.0,0.0,72,0.00,,,0.00,,2013-02-06 04:02:00,
2013-02-05 22:11:00,33.0,25.0,29.98,NNW,328,0.0,0.0,72,0.00,,,0.00,,2013-02-06 04:11:00,
2013-02-05 22:21:00,33.0,25.0,29.98,NNW,328,0.0,0.0,73,0.00,,,0.00,,2013-02-06 04:21:00,
2013-02-05 22:31:00,33.0,25.0,29.97,NNW,328,0.0,0.0,73,0.00,,,0.00,,2013-02-06 04:31:00,
2013-02-05 22:42:00,33.0,25.0,29.97,NNW,328,0.0,0.0,73,0.00,,,0.00,,2013-02-06 04:42:00,
2013-02-05 22:52:00,32.0,24.0,29.97,NNW,328,0.0,0.0,73,0.00,,,0.00,,2013-02-06 04:52:00,
2013-02-05 23:02:00,31.0,24.0,29.98,NNW,328,0.0,0.0,75,0.00,,,0.00,,2013-02-06 05:02:00,
2013-02-05 23:12:00,31.0,24.0,29.98,NNW,328,0.0,0.0,75,0.00,,,0.00,,2013-02-06 05:12:00,
2013-02-05 23:22:00,32.0,26.0,29.98,NNW,328,0.0,0.0,77,0.00,,,0.00,,2013-02-06 05:22:00,
2013-02-05 23:32:00,32.0,26.0,29.97,NNW,328,0.0,0.0,77,0.00,,,0.00,,2013-02-06 05:32:00,
2013-02-05 23:41:00,32.0,26.0,29.97,NNW,328,0.0,0.0,77,0.00,,,0.00,,2013-02-06 05:41:00,
2013-02-05 23:52:00,32.0,26.0,29.97,NNW,328,0.0,0.0,77,0.00,,,0.00,,2013-02-06 05:52:00,